Wetterdaten: Woche 16.03.09 - 22.03.09 (KW12)
Datum Zeit Temp. Innen Temp. Aussen Feuchte Inne Feuchte Auss Luftdruck Regen ab 0,1 Wind
16.03.2009 00:00 18,2 C 7,6 C 47 % 82 % 1031,5 hPa 0,0 l/m 0,0 km/h (0 Bft)
16.03.2009 01:00 18,0 C 7,4 C 47 % 83 % 1031,5 hPa 0,0 l/m 0,0 km/h (0 Bft)
16.03.2009 02:00 18,0 C 7,2 C 48 % 83 % 1031,5 hPa 0,0 l/m 0,0 km/h (0 Bft)
16.03.2009 03:00 17,9 C 7,1 C 47 % 83 % 1031,5 hPa 0,0 l/m 0,4 km/h (0 Bft)
16.03.2009 04:00 17,8 C 7,1 C 47 % 84 % 1031,8 hPa 0,0 l/m 0,0 km/h (0 Bft)
16.03.2009 05:00 17,8 C 6,9 C 47 % 83 % 1032,5 hPa 0,0 l/m 0,0 km/h (0 Bft)
16.03.2009 06:00 17,8 C 6,9 C 47 % 84 % 1032,5 hPa 0,0 l/m 0,0 km/h (0 Bft)
16.03.2009 07:00 17,8 C 6,7 C 47 % 85 % 1032,5 hPa 0,0 l/m 0,0 km/h (0 Bft)
16.03.2009 08:00 17,8 C 6,8 C 47 % 85 % 1033,1 hPa 0,0 l/m 0,0 km/h (0 Bft)
16.03.2009 09:00 17,8 C 7,1 C 47 % 84 % 1033,5 hPa 0,0 l/m 0,0 km/h (0 Bft)
16.03.2009 10:00 17,7 C 7,4 C 47 % 81 % 1033,5 hPa 0,0 l/m 0,0 km/h (0 Bft)
16.03.2009 11:00 17,6 C 7,8 C 47 % 80 % 1033,5 hPa 0,0 l/m 0,0 km/h (0 Bft)
16.03.2009 12:00 17,9 C 8,3 C 49 % 78 % 1033,5 hPa 0,0 l/m 0,0 km/h (0 Bft)
16.03.2009 13:00 18,1 C 8,5 C 53 % 77 % 1033,5 hPa 0,0 l/m 0,0 km/h (0 Bft)
16.03.2009 14:00 18,1 C 9,0 C 51 % 77 % 1033,5 hPa 0,0 l/m 0,2 km/h (0 Bft)
16.03.2009 15:00 18,0 C 9,4 C 49 % 75 % 1033,2 hPa 0,0 l/m 0,7 km/h (0 Bft)
16.03.2009 16:00 18,1 C 9,6 C 49 % 74 % 1032,5 hPa 0,0 l/m 0,0 km/h (0 Bft)
16.03.2009 17:00 18,1 C 9,7 C 49 % 74 % 1032,5 hPa 0,0 l/m 0,0 km/h (0 Bft)
16.03.2009 18:00 18,2 C 9,3 C 49 % 75 % 1032,5 hPa 0,0 l/m 0,0 km/h (0 Bft)
16.03.2009 19:00 18,2 C 8,6 C 49 % 77 % 1032,5 hPa 0,0 l/m 0,0 km/h (0 Bft)
16.03.2009 20:00 18,3 C 8,2 C 49 % 78 % 1032,5 hPa 0,0 l/m 0,0 km/h (0 Bft)
16.03.2009 21:00 18,3 C 7,9 C 49 % 79 % 1032,5 hPa 0,0 l/m 0,0 km/h (0 Bft)
16.03.2009 22:00 18,3 C 7,2 C 49 % 79 % 1032,5 hPa 0,0 l/m 0,0 km/h (0 Bft)
16.03.2009 23:00 18,2 C 6,0 C 49 % 81 % 1032,5 hPa 0,0 l/m 0,0 km/h (0 Bft)
17.03.2009 00:00 18,1 C 4,8 C 48 % 82 % 1032,6 hPa 0,0 l/m 0,0 km/h (0 Bft)
17.03.2009 01:00 18,0 C 3,9 C 48 % 83 % 1032,6 hPa 0,0 l/m 0,0 km/h (0 Bft)
17.03.2009 02:00 17,8 C 3,4 C 47 % 84 % 1032,1 hPa 0,0 l/m 0,0 km/h (0 Bft)
17.03.2009 03:00 17,7 C 3,5 C 47 % 84 % 1031,6 hPa 0,0 l/m 0,0 km/h (0 Bft)
17.03.2009 04:00 17,6 C 3,1 C 47 % 85 % 1031,6 hPa 0,0 l/m 0,0 km/h (0 Bft)
17.03.2009 05:00 17,6 C 2,9 C 47 % 85 % 1031,8 hPa 0,0 l/m 0,0 km/h (0 Bft)
17.03.2009 06:00 17,6 C 2,3 C 46 % 86 % 1032,6 hPa 0,0 l/m 0,0 km/h (0 Bft)
17.03.2009 07:00 17,7 C 2,2 C 46 % 86 % 1032,6 hPa 0,0 l/m 0,0 km/h (0 Bft)
17.03.2009 08:00 17,6 C 3,6 C 46 % 86 % 1032,6 hPa 0,0 l/m 0,0 km/h (0 Bft)
17.03.2009 09:00 17,4 C 5,4 C 47 % 87 % 1033,0 hPa 0,0 l/m 0,0 km/h (0 Bft)
17.03.2009 10:00 17,5 C 7,2 C 47 % 87 % 1033,5 hPa 0,0 l/m 0,0 km/h (0 Bft)
17.03.2009 11:00 17,6 C 9,2 C 47 % 83 % 1033,9 hPa 0,0 l/m 0,0 km/h (0 Bft)
17.03.2009 12:00 17,7 C 11,2 C 47 % 77 % 1034,5 hPa 0,0 l/m 3,3 km/h (1 Bft)
17.03.2009 13:00 17,9 C 12,9 C 49 % 72 % 1034,4 hPa 0,0 l/m 1,1 km/h (0 Bft)
17.03.2009 14:00 18,0 C 13,1 C 49 % 68 % 1034,3 hPa 0,0 l/m 0,0 km/h (0 Bft)
17.03.2009 15:00 18,2 C 13,0 C 48 % 67 % 1033,7 hPa 0,0 l/m 0,0 km/h (0 Bft)
17.03.2009 16:00 18,4 C 13,2 C 47 % 64 % 1033,8 hPa 0,0 l/m 0,0 km/h (0 Bft)
17.03.2009 17:00 18,4 C 12,4 C 47 % 63 % 1034,4 hPa 0,0 l/m 0,0 km/h (0 Bft)
17.03.2009 18:00 18,5 C 11,0 C 48 % 63 % 1034,5 hPa 0,0 l/m 0,0 km/h (0 Bft)
17.03.2009 19:00 18,5 C 9,2 C 48 % 67 % 1034,8 hPa 0,0 l/m 0,0 km/h (0 Bft)
17.03.2009 20:00 18,3 C 7,5 C 46 % 70 % 1035,5 hPa 0,0 l/m 0,0 km/h (0 Bft)
17.03.2009 21:00 17,8 C 5,8 C 43 % 74 % 1036,1 hPa 0,0 l/m 0,0 km/h (0 Bft)
17.03.2009 22:00 17,6 C 4,6 C 43 % 76 % 1036,6 hPa 0,0 l/m 0,0 km/h (0 Bft)
17.03.2009 23:00 17,8 C 3,4 C 43 % 76 % 1036,6 hPa 0,0 l/m 0,0 km/h (0 Bft)
18.03.2009 00:00 17,7 C 2,0 C 42 % 77 % 1036,6 hPa 0,0 l/m 0,0 km/h (0 Bft)
18.03.2009 01:00 17,6 C 0,9 C 42 % 78 % 1036,6 hPa 0,0 l/m 0,0 km/h (0 Bft)
18.03.2009 02:00 17,4 C 0,3 C 42 % 79 % 1036,1 hPa 0,0 l/m 0,0 km/h (0 Bft)
18.03.2009 03:00 17,3 C -0,1 C 41 % 81 % 1035,7 hPa 0,0 l/m 0,0 km/h (0 Bft)
18.03.2009 04:00 17,1 C -0,4 C 41 % 81 % 1035,7 hPa 0,0 l/m 0,0 km/h (0 Bft)
18.03.2009 05:00 17,0 C -0,5 C 41 % 82 % 1035,7 hPa 0,0 l/m 0,0 km/h (0 Bft)
18.03.2009 06:00 16,8 C -0,7 C 41 % 82 % 1034,8 hPa 0,0 l/m 0,0 km/h (0 Bft)
18.03.2009 07:00 16,8 C -0,7 C 40 % 83 % 1034,7 hPa 0,0 l/m 0,0 km/h (0 Bft)
18.03.2009 08:00 16,7 C 0,1 C 41 % 84 % 1035,4 hPa 0,0 l/m 0,0 km/h (0 Bft)
18.03.2009 09:00 16,6 C 1,5 C 41 % 86 % 1035,3 hPa 0,0 l/m 0,0 km/h (0 Bft)
18.03.2009 10:00 16,6 C 3,0 C 42 % 88 % 1034,6 hPa 0,0 l/m 0,0 km/h (0 Bft)
18.03.2009 11:00 16,5 C 5,2 C 43 % 86 % 1034,6 hPa 0,0 l/m 0,0 km/h (0 Bft)
18.03.2009 12:00 16,6 C 7,5 C 43 % 78 % 1034,0 hPa 0,0 l/m 0,0 km/h (0 Bft)
18.03.2009 13:00 16,6 C 8,8 C 43 % 69 % 1032,9 hPa 0,0 l/m 0,0 km/h (0 Bft)
18.03.2009 14:00 16,8 C 11,2 C 41 % 58 % 1031,8 hPa 0,0 l/m 1,7 km/h (1 Bft)
18.03.2009 15:00 17,2 C 12,2 C 40 % 46 % 1031,2 hPa 0,0 l/m 0,0 km/h (0 Bft)
18.03.2009 16:00 17,3 C 11,8 C 39 % 46 % 1030,4 hPa 0,0 l/m 0,0 km/h (0 Bft)
18.03.2009 17:00 17,2 C 11,0 C 40 % 49 % 1029,6 hPa 0,0 l/m 0,0 km/h (0 Bft)
18.03.2009 18:00 17,3 C 9,9 C 39 % 50 % 1029,5 hPa 0,0 l/m 0,0 km/h (0 Bft)
18.03.2009 19:00 17,2 C 7,6 C 39 % 57 % 1028,9 hPa 0,0 l/m 0,0 km/h (0 Bft)
18.03.2009 20:00 17,3 C 5,4 C 39 % 63 % 1028,5 hPa 0,0 l/m 0,0 km/h (0 Bft)
18.03.2009 21:00 16,8 C 3,6 C 38 % 66 % 1028,0 hPa 0,0 l/m 0,0 km/h (0 Bft)
18.03.2009 22:00 16,4 C 2,2 C 38 % 70 % 1027,7 hPa 0,0 l/m 0,0 km/h (0 Bft)
18.03.2009 23:00 16,5 C 1,4 C 39 % 72 % 1027,6 hPa 0,0 l/m 0,0 km/h (0 Bft)
19.03.2009 00:00 16,6 C 0,6 C 39 % 73 % 1027,3 hPa 0,0 l/m 0,0 km/h (0 Bft)
19.03.2009 01:00 16,5 C 0,0 C 39 % 75 % 1026,6 hPa 0,0 l/m 0,0 km/h (0 Bft)
19.03.2009 02:00 16,4 C 0,1 C 39 % 76 % 1026,6 hPa 0,0 l/m 0,0 km/h (0 Bft)
19.03.2009 03:00 16,4 C 0,7 C 39 % 76 % 1026,5 hPa 0,0 l/m 0,0 km/h (0 Bft)
19.03.2009 04:00 16,3 C 1,1 C 39 % 77 % 1025,6 hPa 0,0 l/m 0,0 km/h (0 Bft)
19.03.2009 05:00 16,2 C 1,4 C 39 % 77 % 1025,6 hPa 0,0 l/m 0,0 km/h (0 Bft)
19.03.2009 06:00 16,2 C 1,5 C 40 % 78 % 1025,6 hPa 0,0 l/m 0,0 km/h (0 Bft)
19.03.2009 07:00 16,3 C 1,8 C 39 % 78 % 1025,6 hPa 0,0 l/m 0,0 km/h (0 Bft)
19.03.2009 08:00 16,2 C 2,9 C 40 % 78 % 1025,7 hPa 0,0 l/m 0,0 km/h (0 Bft)
19.03.2009 09:00 16,2 C 4,3 C 40 % 74 % 1026,5 hPa 0,0 l/m 0,0 km/h (0 Bft)
19.03.2009 10:00 16,1 C 6,0 C 39 % 68 % 1026,5 hPa 0,0 l/m 0,3 km/h (0 Bft)
19.03.2009 11:00 16,1 C 8,8 C 39 % 60 % 1026,6 hPa 0,0 l/m 3,0 km/h (1 Bft)
19.03.2009 12:00 16,1 C 10,4 C 38 % 53 % 1027,2 hPa 0,0 l/m 0,6 km/h (0 Bft)
19.03.2009 13:00 16,3 C 11,9 C 38 % 51 % 1027,0 hPa 0,0 l/m 5,7 km/h (1 Bft)
19.03.2009 14:00 16,6 C 12,8 C 38 % 50 % 1026,5 hPa 0,0 l/m 3,3 km/h (1 Bft)
19.03.2009 15:00 16,8 C 12,4 C 38 % 51 % 1027,3 hPa 0,0 l/m 0,5 km/h (0 Bft)
19.03.2009 16:00 16,8 C 11,6 C 38 % 52 % 1027,4 hPa 0,0 l/m 0,0 km/h (0 Bft)
19.03.2009 17:00 16,8 C 10,5 C 37 % 50 % 1027,5 hPa 0,0 l/m 0,0 km/h (0 Bft)
19.03.2009 18:00 16,8 C 9,2 C 37 % 52 % 1028,5 hPa 0,0 l/m 0,0 km/h (0 Bft)
19.03.2009 19:00 17,1 C 7,4 C 37 % 55 % 1028,5 hPa 0,0 l/m 0,0 km/h (0 Bft)
19.03.2009 20:00 17,2 C 5,7 C 38 % 59 % 1029,4 hPa 0,0 l/m 0,0 km/h (0 Bft)
19.03.2009 21:00 17,2 C 4,2 C 38 % 62 % 1029,6 hPa 0,0 l/m 0,0 km/h (0 Bft)
19.03.2009 22:00 17,0 C 2,8 C 38 % 66 % 1030,1 hPa 0,0 l/m 0,0 km/h (0 Bft)
19.03.2009 23:00 16,9 C 1,7 C 38 % 68 % 1030,6 hPa 0,0 l/m 0,0 km/h (0 Bft)
20.03.2009 00:00 16,8 C 1,0 C 38 % 70 % 1030,6 hPa 0,0 l/m 0,0 km/h (0 Bft)
20.03.2009 01:00 16,7 C 0,4 C 38 % 72 % 1030,6 hPa 0,0 l/m 0,0 km/h (0 Bft)
20.03.2009 02:00 16,6 C 0,0 C 38 % 73 % 1030,8 hPa 0,0 l/m 0,0 km/h (0 Bft)
20.03.2009 03:00 16,5 C -0,2 C 38 % 74 % 1030,6 hPa 0,0 l/m 0,0 km/h (0 Bft)
20.03.2009 04:00 16,4 C -0,4 C 38 % 75 % 1030,6 hPa 0,0 l/m 0,0 km/h (0 Bft)
20.03.2009 05:00 16,2 C -0,7 C 38 % 75 % 1031,1 hPa 0,0 l/m 0,0 km/h (0 Bft)
20.03.2009 06:00 16,1 C -1,0 C 37 % 76 % 1031,7 hPa 0,0 l/m 0,0 km/h (0 Bft)
20.03.2009 07:00 16,1 C -1,0 C 37 % 77 % 1032,3 hPa 0,0 l/m 0,0 km/h (0 Bft)
20.03.2009 08:00 16,2 C -0,1 C 37 % 77 % 1032,6 hPa 0,0 l/m 0,0 km/h (0 Bft)
20.03.2009 09:00 16,1 C 2,3 C 37 % 74 % 1032,6 hPa 0,0 l/m 0,0 km/h (0 Bft)
20.03.2009 10:00 16,0 C 5,4 C 37 % 63 % 1032,5 hPa 0,0 l/m 0,6 km/h (0 Bft)
20.03.2009 11:00 16,0 C 7,6 C 36 % 55 % 1032,5 hPa 0,0 l/m 0,0 km/h (0 Bft)
20.03.2009 12:00 16,0 C 9,6 C 36 % 48 % 1032,5 hPa 0,0 l/m 3,4 km/h (1 Bft)
20.03.2009 13:00 16,1 C 11,4 C 35 % 44 % 1031,7 hPa 0,0 l/m 4,1 km/h (1 Bft)
20.03.2009 14:00 16,5 C 12,4 C 35 % 41 % 1031,4 hPa 0,0 l/m 0,8 km/h (0 Bft)
20.03.2009 15:00 17,1 C 12,4 C 36 % 39 % 1030,5 hPa 0,0 l/m 0,1 km/h (0 Bft)
20.03.2009 16:00 17,0 C 11,3 C 35 % 40 % 1030,4 hPa 0,0 l/m 0,0 km/h (0 Bft)
20.03.2009 17:00 16,8 C 9,9 C 34 % 42 % 1030,5 hPa 0,0 l/m 0,0 km/h (0 Bft)
20.03.2009 18:00 17,2 C 8,5 C 36 % 45 % 1030,5 hPa 0,0 l/m 0,0 km/h (0 Bft)
20.03.2009 19:00 17,3 C 6,8 C 36 % 49 % 1030,5 hPa 0,0 l/m 0,0 km/h (0 Bft)
20.03.2009 20:00 17,3 C 5,1 C 37 % 54 % 1030,5 hPa 0,0 l/m 0,0 km/h (0 Bft)
20.03.2009 21:00 17,3 C 3,4 C 37 % 58 % 1030,6 hPa 0,0 l/m 0,0 km/h (0 Bft)
20.03.2009 22:00 17,3 C 2,0 C 37 % 62 % 1030,6 hPa 0,0 l/m 0,0 km/h (0 Bft)
20.03.2009 23:00 17,2 C 0,8 C 37 % 65 % 1030,6 hPa 0,0 l/m 0,0 km/h (0 Bft)
21.03.2009 00:00 17,1 C 0,2 C 37 % 67 % 1030,6 hPa 0,0 l/m 0,0 km/h (0 Bft)
21.03.2009 01:00 17,0 C -0,2 C 37 % 69 % 1030,5 hPa 0,0 l/m 0,0 km/h (0 Bft)
21.03.2009 02:00 16,9 C -0,4 C 37 % 71 % 1030,3 hPa 0,0 l/m 0,0 km/h (0 Bft)
21.03.2009 03:00 16,8 C -0,7 C 37 % 71 % 1029,6 hPa 0,0 l/m 0,0 km/h (0 Bft)
21.03.2009 04:00 16,8 C -0,7 C 37 % 72 % 1029,6 hPa 0,0 l/m 0,0 km/h (0 Bft)
21.03.2009 05:00 16,7 C -0,6 C 37 % 73 % 1029,6 hPa 0,0 l/m 0,0 km/h (0 Bft)
21.03.2009 06:00 16,7 C -0,4 C 37 % 73 % 1029,6 hPa 0,0 l/m 0,0 km/h (0 Bft)
21.03.2009 07:00 16,7 C -0,4 C 37 % 75 % 1029,6 hPa 0,0 l/m 0,0 km/h (0 Bft)
21.03.2009 08:00 16,7 C 0,6 C 38 % 75 % 1029,6 hPa 0,0 l/m 0,0 km/h (0 Bft)
21.03.2009 09:00 16,6 C 2,6 C 38 % 73 % 1029,6 hPa 0,0 l/m 0,0 km/h (0 Bft)
21.03.2009 10:00 16,6 C 5,6 C 38 % 66 % 1029,5 hPa 0,0 l/m 0,0 km/h (0 Bft)
21.03.2009 11:00 16,6 C 7,8 C 38 % 58 % 1029,5 hPa 0,0 l/m 0,5 km/h (0 Bft)
21.03.2009 12:00 16,6 C 10,0 C 38 % 52 % 1029,4 hPa 0,0 l/m 0,8 km/h (0 Bft)
21.03.2009 13:00 16,7 C 11,8 C 39 % 48 % 1028,5 hPa 0,0 l/m 0,9 km/h (0 Bft)
21.03.2009 14:00 17,1 C 12,7 C 38 % 44 % 1027,9 hPa 0,0 l/m 3,8 km/h (1 Bft)
21.03.2009 15:00 17,7 C 12,8 C 38 % 41 % 1027,1 hPa 0,0 l/m 2,6 km/h (1 Bft)
21.03.2009 16:00 17,6 C 12,2 C 38 % 40 % 1026,4 hPa 0,0 l/m 1,9 km/h (1 Bft)
21.03.2009 17:00 17,6 C 11,5 C 38 % 41 % 1026,4 hPa 0,0 l/m 0,0 km/h (0 Bft)
21.03.2009 18:00 17,6 C 10,5 C 38 % 44 % 1026,4 hPa 0,0 l/m 0,0 km/h (0 Bft)
21.03.2009 19:00 17,6 C 8,4 C 38 % 49 % 1026,5 hPa 0,0 l/m 0,0 km/h (0 Bft)
21.03.2009 20:00 17,6 C 6,3 C 38 % 54 % 1026,5 hPa 0,0 l/m 0,0 km/h (0 Bft)
21.03.2009 21:00 17,5 C 4,6 C 38 % 57 % 1026,5 hPa 0,0 l/m 0,0 km/h (0 Bft)
21.03.2009 22:00 17,5 C 3,9 C 38 % 59 % 1026,5 hPa 0,0 l/m 0,0 km/h (0 Bft)
21.03.2009 23:00 17,4 C 2,9 C 38 % 62 % 1026,2 hPa 0,0 l/m 0,0 km/h (0 Bft)
22.03.2009 00:00 17,3 C 2,1 C 38 % 64 % 1025,6 hPa 0,0 l/m 0,0 km/h (0 Bft)
22.03.2009 01:00 17,4 C 1,2 C 38 % 66 % 1025,6 hPa 0,0 l/m 0,0 km/h (0 Bft)
22.03.2009 02:00 17,4 C 0,9 C 38 % 68 % 1025,6 hPa 0,0 l/m 0,0 km/h (0 Bft)
22.03.2009 03:00 17,3 C 1,2 C 38 % 70 % 1025,1 hPa 0,0 l/m 0,0 km/h (0 Bft)
22.03.2009 04:00 17,2 C 2,2 C 38 % 74 % 1025,6 hPa 0,0 l/m 0,0 km/h (0 Bft)
22.03.2009 05:00 17,2 C 2,8 C 39 % 77 % 1025,6 hPa 0,0 l/m 0,0 km/h (0 Bft)
22.03.2009 06:00 17,0 C 3,2 C 39 % 80 % 1025,6 hPa 0,0 l/m 0,0 km/h (0 Bft)
22.03.2009 07:00 16,9 C 3,6 C 40 % 82 % 1026,4 hPa 0,0 l/m 0,0 km/h (0 Bft)
22.03.2009 08:00 16,9 C 4,5 C 40 % 83 % 1026,5 hPa 0,0 l/m 0,1 km/h (0 Bft)
22.03.2009 09:00 16,8 C 5,5 C 41 % 84 % 1026,5 hPa 0,0 l/m 0,7 km/h (0 Bft)
22.03.2009 10:00 16,8 C 7,2 C 41 % 80 % 1026,5 hPa 0,0 l/m 5,1 km/h (1 Bft)
22.03.2009 11:00 16,9 C 9,2 C 42 % 69 % 1026,5 hPa 0,0 l/m 4,1 km/h (1 Bft)
22.03.2009 12:00 17,0 C 10,8 C 41 % 59 % 1026,4 hPa 0,0 l/m 3,9 km/h (1 Bft)
22.03.2009 13:00 17,0 C 11,5 C 41 % 55 % 1026,4 hPa 0,0 l/m 3,5 km/h (1 Bft)
22.03.2009 14:00 17,2 C 11,7 C 41 % 54 % 1025,6 hPa 0,0 l/m 1,9 km/h (1 Bft)
22.03.2009 15:00 17,4 C 11,9 C 41 % 53 % 1025,4 hPa 0,0 l/m 2,9 km/h (1 Bft)
22.03.2009 16:00 17,4 C 11,1 C 41 % 56 % 1025,3 hPa 0,0 l/m 3,7 km/h (1 Bft)
22.03.2009 17:00 17,6 C 10,5 C 41 % 58 % 1024,4 hPa 0,0 l/m 3,5 km/h (1 Bft)
22.03.2009 18:00 17,6 C 9,9 C 41 % 59 % 1024,4 hPa 0,0 l/m 3,7 km/h (1 Bft)
22.03.2009 19:00 17,7 C 9,3 C 41 % 61 % 1024,5 hPa 0,0 l/m 1,3 km/h (1 Bft)
22.03.2009 20:00 17,8 C 8,9 C 41 % 66 % 1024,5 hPa 0,0 l/m 2,4 km/h (1 Bft)
22.03.2009 21:00 17,8 C 8,2 C 42 % 73 % 1024,5 hPa 0,0 l/m 2,9 km/h (1 Bft)
22.03.2009 22:00 17,8 C 7,5 C 42 % 77 % 1023,9 hPa 0,0 l/m 1,6 km/h (1 Bft)
22.03.2009 23:00 18,0 C 7,6 C 43 % 76 % 1022,7 hPa 0,0 l/m 1,9 km/h (1 Bft)
Min-Datum _ 20.03.09 20.03.09 20.03.09 20.03.09 22.03.09 - 16.03.09
_ Min-Zeit 06:36 06:34 16:44 15:34 23:12 - 00:00
Minimum _ 16,0 C -1,1 C 32 % 38 % 1022,5 hPa - 0,0 km/h (0 Bft)
Max-Datum _ 17.03.09 17.03.09 16.03.09 18.03.09 18.03.09 16.03.09 19.03.09
_ Max-Zeit 15:58 13:46 13:26 10:20 02:08 00:00 14:38
Maximum _ 18,5 C 13,4 C 54 % 88 % 1036,7 hPa 0,0 l/m 48,4 km/h
S-SO (6 Bft)
Durchschnitt _ 17,2 C 5,8 C 41 % 69 % 1030,2 hPa #0,0 l/m 0,5 km/h (0 Bft)
© 2012 W. Hausmann